createdAt,value
2022-10-19T00:06:00.589Z,3.00
2022-10-19T00:09:02.065Z,3.08
2022-10-19T00:11:40.307Z,3.40
2022-10-19T00:14:17.333Z,3.60
2022-10-19T00:16:52.581Z,3.25
2022-10-19T00:19:25.103Z,3.63
2022-10-19T00:22:01.625Z,3.60
2022-10-19T00:24:32.732Z,3.08
2022-10-19T00:27:02.674Z,3.90
2022-10-19T00:29:35.561Z,4.13
2022-10-19T00:32:10.347Z,3.95
2022-10-19T00:37:47.904Z,3.90
2022-10-19T00:40:23.824Z,4.40
2022-10-19T00:42:58.554Z,3.38
2022-10-19T00:45:29.967Z,3.95
2022-10-19T00:48:04.098Z,3.42
2022-10-19T00:50:35.747Z,4.15
2022-10-19T00:53:09.030Z,3.95
2022-10-19T00:55:41.559Z,4.05
2022-10-19T00:58:12.407Z,4.25
2022-10-19T01:00:45.609Z,4.78
2022-10-19T01:03:18.898Z,4.72
2022-10-19T01:05:49.597Z,5.47
2022-10-19T01:08:19.183Z,4.65
2022-10-19T01:11:01.831Z,4.70
2022-10-19T01:16:21.640Z,4.40
2022-10-19T01:19:00.980Z,3.13
2022-10-19T01:21:36.757Z,3.83
2022-10-19T01:24:42.109Z,3.08
2022-10-19T01:27:44.565Z,2.75
2022-10-19T01:30:33.810Z,3.25
2022-10-19T01:33:17.474Z,3.10
2022-10-19T01:35:54.464Z,2.85
2022-10-19T01:41:37.473Z,3.97
2022-10-19T01:44:17.897Z,3.47
2022-10-19T01:47:02.354Z,3.40
2022-10-19T01:49:50.766Z,3.88
2022-10-19T01:52:29.870Z,4.10
2022-10-19T01:55:24.496Z,4.88
2022-10-19T01:57:59.608Z,4.60
2022-10-19T02:00:31.872Z,4.47
2022-10-19T02:03:04.375Z,4.82
2022-10-19T02:05:42.189Z,4.05
2022-10-19T02:08:31.347Z,4.07
2022-10-19T02:11:09.923Z,3.67
2022-10-19T02:17:03.856Z,3.92
2022-10-19T02:19:49.361Z,3.35
2022-10-19T02:22:25.829Z,3.38
2022-10-19T02:25:20.567Z,3.30
2022-10-19T02:28:09.462Z,3.05
2022-10-19T02:34:04.381Z,3.88
2022-10-19T02:50:25.894Z,4.20
2022-10-19T02:52:55.183Z,4.07
2022-10-19T02:55:23.109Z,4.28
2022-10-19T02:57:51.084Z,3.25
2022-10-19T03:00:19.164Z,4.43
2022-10-19T03:02:48.263Z,4.20
2022-10-19T03:05:16.257Z,5.10
2022-10-19T03:07:44.241Z,4.80
2022-10-19T03:10:13.409Z,5.03
2022-10-19T03:12:41.341Z,5.20
2022-10-19T03:15:11.853Z,4.40
2022-10-19T03:17:39.754Z,4.05
2022-10-19T03:20:08.599Z,5.13
2022-10-19T03:22:36.537Z,4.38
2022-10-19T03:25:05.114Z,3.75
2022-10-19T03:27:34.516Z,4.78
2022-10-19T03:30:02.876Z,4.95
2022-10-19T03:35:32.057Z,3.83
2022-10-19T03:38:06.926Z,3.92
2022-10-19T03:40:55.138Z,4.22
2022-10-19T03:43:38.069Z,5.38
2022-10-19T03:46:18.123Z,4.90
2022-10-19T03:51:52.678Z,4.63
2022-10-19T03:54:47.215Z,7.47
2022-10-19T03:57:41.307Z,7.25
2022-10-19T04:00:29.446Z,8.77
2022-10-19T04:03:06.279Z,8.02
2022-10-19T04:05:36.485Z,8.40
2022-10-19T04:08:06.549Z,8.95
2022-10-19T04:10:42.196Z,9.02
2022-10-19T04:13:19.178Z,8.95
2022-10-19T04:16:23.113Z,8.68
2022-10-19T04:29:04.509Z,9.10
2022-10-19T04:31:33.846Z,7.68
2022-10-19T04:34:01.534Z,9.00
2022-10-19T04:36:31.470Z,8.25
2022-10-19T04:39:01.246Z,8.15
2022-10-19T04:41:48.048Z,8.18
2022-10-19T04:44:55.785Z,9.13
2022-10-19T04:47:26.848Z,8.52
2022-10-19T04:49:59.414Z,8.38
2022-10-19T04:52:30.007Z,7.75
2022-10-19T05:11:14.324Z,9.15
2022-10-19T05:17:39.312Z,9.35
2022-10-19T05:20:33.230Z,9.05
2022-10-19T05:23:12.781Z,8.50
2022-10-19T05:25:50.972Z,8.13
2022-10-19T05:28:29.269Z,7.90
2022-10-19T05:31:22.614Z,8.05
2022-10-19T05:34:02.573Z,8.18
2022-10-19T05:36:41.436Z,8.43
2022-10-19T05:39:28.677Z,8.60
2022-10-19T05:42:11.271Z,7.50
2022-10-19T05:44:47.341Z,7.35
2022-10-19T05:47:28.661Z,8.38
2022-10-19T05:50:04.403Z,8.05
2022-10-19T05:52:41.842Z,8.45
2022-10-19T05:55:15.957Z,8.05
2022-10-19T05:57:55.161Z,7.88
2022-10-19T06:00:34.957Z,7.50
2022-10-19T06:03:11.028Z,6.97
2022-10-19T06:05:50.601Z,7.20
2022-10-19T06:08:30.196Z,6.55
2022-10-19T06:11:14.954Z,6.65
2022-10-19T06:14:01.890Z,6.20
2022-10-19T06:16:42.693Z,6.40
2022-10-19T06:19:15.956Z,6.50
2022-10-19T06:21:50.719Z,7.18
2022-10-19T06:24:37.077Z,7.22
2022-10-19T06:27:14.264Z,6.30
2022-10-19T06:30:00.551Z,6.43
2022-10-19T06:32:37.770Z,7.30
2022-10-19T06:35:18.471Z,7.88
2022-10-19T06:37:58.498Z,6.45
2022-10-19T06:40:35.791Z,6.00
2022-10-19T06:43:17.770Z,7.57
2022-10-19T06:45:56.716Z,6.53
2022-10-19T06:48:36.696Z,6.35
2022-10-19T06:51:16.767Z,6.88
2022-10-19T06:53:47.038Z,6.03
2022-10-19T06:56:26.521Z,5.88
2022-10-19T06:59:01.734Z,6.78
2022-10-19T07:01:40.285Z,5.80
2022-10-19T07:04:20.651Z,6.35
2022-10-19T07:06:52.457Z,7.03
2022-10-19T07:09:26.083Z,6.57
2022-10-19T07:12:05.909Z,6.07
2022-10-19T07:14:41.098Z,6.80
2022-10-19T07:17:16.655Z,6.30
2022-10-19T07:19:51.564Z,6.80
2022-10-19T07:22:36.006Z,6.93
2022-10-19T07:25:17.482Z,6.90
2022-10-19T07:27:57.206Z,7.50
2022-10-19T07:30:38.634Z,6.60
2022-10-19T07:35:54.726Z,7.05
2022-10-19T07:38:30.980Z,7.35
2022-10-19T07:41:07.343Z,7.63
2022-10-19T07:43:47.219Z,7.45
2022-10-19T07:46:30.925Z,6.65
2022-10-19T07:49:06.198Z,7.07
2022-10-19T07:51:43.715Z,7.13
2022-10-19T07:54:15.066Z,6.22
2022-10-19T07:56:52.045Z,6.50
2022-10-19T07:59:23.436Z,6.95
2022-10-19T08:01:57.728Z,6.13
2022-10-19T08:04:58.876Z,6.28
2022-10-19T08:07:36.134Z,6.65
2022-10-19T08:10:09.742Z,6.95
2022-10-19T08:12:51.460Z,6.57
2022-10-19T08:15:24.036Z,5.67
2022-10-19T08:20:46.904Z,6.00
2022-10-19T08:23:24.083Z,4.97
2022-10-19T08:26:16.042Z,5.07
2022-10-19T08:28:51.699Z,4.73
2022-10-19T08:31:29.867Z,4.20
2022-10-19T08:34:01.679Z,5.90
2022-10-19T08:36:36.717Z,5.38
2022-10-19T08:39:14.881Z,5.90
2022-10-19T08:48:35.017Z,4.00
2022-10-19T08:51:11.619Z,4.75
2022-10-19T08:53:59.478Z,4.72
2022-10-19T08:56:54.239Z,3.97
2022-10-19T09:02:41.776Z,3.67
2022-10-19T09:08:17.953Z,3.40
2022-10-19T09:11:36.116Z,3.88
2022-10-19T09:17:33.886Z,3.22
2022-10-19T09:20:18.060Z,2.72
2022-10-19T09:23:01.151Z,3.20
2022-10-19T09:25:38.427Z,3.70
2022-10-19T09:28:42.438Z,3.60
2022-10-19T09:31:27.168Z,3.30
2022-10-19T09:37:23.234Z,2.53
2022-10-19T09:40:01.592Z,2.83
2022-10-19T09:42:50.529Z,2.65
2022-10-19T09:45:50.535Z,2.60
2022-10-19T09:48:33.258Z,1.90
2022-10-19T09:51:28.151Z,2.10
2022-10-19T09:54:45.813Z,2.50
2022-10-19T09:57:30.116Z,2.38
2022-10-19T10:00:06.471Z,2.42
2022-10-19T10:06:33.241Z,1.92
2022-10-19T10:09:27.458Z,2.25
2022-10-19T10:25:59.909Z,2.35
2022-10-19T10:31:17.178Z,1.35
2022-10-19T10:34:16.253Z,2.15
2022-10-19T10:37:11.148Z,1.80
2022-10-19T10:39:44.804Z,1.02
2022-10-19T10:44:59.136Z,2.10
2022-10-19T10:47:45.142Z,1.40
2022-10-19T10:56:44.709Z,1.15
2022-10-19T10:59:19.428Z,0.80
2022-10-19T11:01:59.374Z,1.30
2022-10-19T11:04:33.206Z,1.20
2022-10-19T11:07:06.109Z,1.27
2022-10-19T11:09:37.483Z,1.23
2022-10-19T11:12:07.309Z,1.10
2022-10-19T11:14:44.904Z,1.70
2022-10-19T11:17:19.292Z,1.50
2022-10-19T11:19:50.180Z,1.67
2022-10-19T11:22:26.957Z,2.00
2022-10-19T16:55:23.737Z,5.65
2022-10-19T16:57:57.191Z,5.95
2022-10-19T17:00:28.659Z,5.35
2022-10-19T17:03:00.643Z,7.63
2022-10-19T17:05:34.579Z,7.35
2022-10-19T17:08:03.232Z,6.60
2022-10-19T17:10:37.268Z,5.93
2022-10-19T17:13:08.204Z,6.90
2022-10-19T17:18:31.704Z,6.40
2022-10-19T17:33:43.015Z,7.32
2022-10-19T17:39:07.134Z,5.25
2022-10-19T17:55:11.073Z,5.47
2022-10-19T18:53:32.599Z,5.05
2022-10-19T18:56:34.895Z,5.78
2022-10-19T19:11:56.557Z,5.15
2022-10-19T19:14:49.156Z,4.07
2022-10-19T19:17:47.883Z,4.10
2022-10-19T19:24:03.585Z,4.28
2022-10-19T19:26:59.746Z,4.00
2022-10-19T19:29:57.577Z,4.40
2022-10-19T19:32:55.939Z,4.72
2022-10-19T19:39:12.580Z,5.93
2022-10-19T19:42:07.944Z,4.53
2022-10-19T19:44:52.215Z,4.47
2022-10-19T19:47:43.612Z,4.32
2022-10-19T19:50:25.181Z,4.82
2022-10-19T19:53:24.381Z,5.03
2022-10-19T20:06:42.353Z,5.22
2022-10-19T20:09:33.126Z,5.63
2022-10-19T20:23:20.343Z,5.03
2022-10-19T22:57:03.314Z,6.40
2022-10-19T22:59:31.396Z,7.10
2022-10-19T23:01:59.609Z,7.55
2022-10-19T23:04:28.012Z,7.68
2022-10-19T23:06:56.054Z,6.95
2022-10-19T23:09:24.180Z,7.40
2022-10-19T23:11:52.128Z,8.65
2022-10-19T23:14:21.309Z,7.60
2022-10-19T23:16:49.321Z,6.85
2022-10-19T23:19:17.233Z,7.07
2022-10-19T23:21:45.313Z,7.07
2022-10-19T23:24:13.217Z,7.90
2022-10-19T23:26:41.103Z,6.93
2022-10-19T23:29:08.892Z,8.15
2022-10-19T23:31:38.577Z,6.80
2022-10-19T23:34:07.530Z,8.10
2022-10-19T23:36:37.298Z,8.60
2022-10-19T23:39:06.127Z,7.32
2022-10-19T23:41:35.211Z,8.75
2022-10-19T23:44:04.377Z,7.32
2022-10-19T23:46:33.767Z,7.35
2022-10-19T23:49:04.198Z,7.40
2022-10-19T23:51:33.035Z,7.10
2022-10-19T23:54:01.731Z,8.85
2022-10-19T23:56:31.779Z,8.13
2022-10-19T23:59:01.417Z,7.43
